»·PEaware :: N1JG KMRY-KLAS

N1JG :: KMRY-KLAS

FLIGHT INFORMATION

Flight Status: Arrived
Operator: Privately registered:
United States
More flights under this callsign
Pilot: Joseph C. (259)
Aircraft: SOCATA TBM-900
(TBM9)
More flights by this aircraft type
Origin: KMRY Monterey Peninsula
United States
Destination: KLAS McCarran Intl
United States
More flights between these airports :: More routes between these airports
Route: +MRY5 SNS PXN NTELL Q158 BIKKR HIDEN
File this flight plan on PilotEdge
Remarks:
Altitude:
(Current/Filed)
31,000ft
Speed:
(Current/Filed)
314kts
Departed: 02-Mar-19 01:34 PM
Arrived: 02-Mar-19 02:49 PM
Distance/Time
Traveled:
324nm/1:15
Distance/Time
To Go:
Arrived

Flight Plot

Page will automatically refresh every two minutes.

Flight plan parsing failed; only flown route is shown


Map Options




Map Legend


Flown Route
Filed Route
Departure Airport
Arrival Airport
Navaid (VOR, NDB)
Fix

Horizontal Profiles

Position Reports

Time Latitude Longitude Heading Altitude Ground
Speed
02-Mar-19 12:49 36.591938 -121.849655 167 170ft 0kts
02-Mar-19 12:50 36.591938 -121.849655 167 170ft 0kts
02-Mar-19 12:51 36.591938 -121.849655 167 170ft 0kts
02-Mar-19 12:52 36.591938 -121.849655 167 170ft 0kts
02-Mar-19 12:53 36.591938 -121.849655 167 170ft 0kts
02-Mar-19 12:54 36.591938 -121.849655 167 170ft 0kts
02-Mar-19 12:55 36.591938 -121.849655 167 170ft 0kts
02-Mar-19 12:56 36.591938 -121.849655 167 170ft 0kts
02-Mar-19 12:57 36.591938 -121.849655 167 170ft 0kts
02-Mar-19 12:58 36.591938 -121.849655 167 170ft 0kts
02-Mar-19 12:59 36.591938 -121.849655 167 170ft 0kts
02-Mar-19 13:00 36.591938 -121.849655 167 170ft 0kts
02-Mar-19 13:01 36.591938 -121.849655 167 170ft 0kts
02-Mar-19 13:02 36.591938 -121.849655 167 170ft 0kts
02-Mar-19 13:03 36.591938 -121.849655 167 170ft 0kts
02-Mar-19 13:04 36.591938 -121.849655 167 170ft 0kts
02-Mar-19 13:05 36.591938 -121.849655 167 170ft 0kts
02-Mar-19 13:06 36.591938 -121.849655 167 170ft 0kts
02-Mar-19 13:07 36.591938 -121.849655 167 170ft 0kts
02-Mar-19 13:08 36.591938 -121.849655 167 170ft 0kts
02-Mar-19 13:09 36.591938 -121.849655 167 170ft 0kts
02-Mar-19 13:10 36.591938 -121.849655 167 170ft 0kts
02-Mar-19 13:11 36.591938 -121.849655 167 170ft 0kts
02-Mar-19 13:12 36.591936 -121.849655 167 170ft 0kts
02-Mar-19 13:13 36.591936 -121.849655 167 170ft 0kts
02-Mar-19 13:14 36.591936 -121.849655 167 170ft 0kts
02-Mar-19 13:15 36.591936 -121.849655 167 170ft 0kts
02-Mar-19 13:16 36.591936 -121.849655 167 170ft 0kts
02-Mar-19 13:17 36.591936 -121.849655 167 170ft 0kts
02-Mar-19 13:18 36.591936 -121.849655 167 170ft 0kts
02-Mar-19 13:19 36.591936 -121.849655 167 170ft 0kts
02-Mar-19 13:20 36.591936 -121.849655 167 170ft 0kts
02-Mar-19 13:21 36.591936 -121.849655 167 170ft 0kts
02-Mar-19 13:22 36.591936 -121.849655 167 170ft 0kts
02-Mar-19 13:23 36.591936 -121.849655 167 170ft 0kts
02-Mar-19 13:24 36.591895 -121.849643 167 170ft 3kts
02-Mar-19 13:25 36.591289 -121.850003 262 170ft 5kts
02-Mar-19 13:26 36.590465 -121.850783 187 169ft 6kts
02-Mar-19 13:27 36.589326 -121.853739 133 170ft 10kts
02-Mar-19 13:28 36.587970 -121.849760 113 170ft 5kts
02-Mar-19 13:29 36.586971 -121.846852 115 170ft 18kts
02-Mar-19 13:30 36.584407 -121.839773 117 170ft 19kts
02-Mar-19 13:31 36.582917 -121.835208 112 170ft 12kts
02-Mar-19 13:32 36.582811 -121.834647 90 170ft 1kts
02-Mar-19 13:33 36.585909 -121.841641 294 170ft 113kts
02-Mar-19 13:34 36.604852 -121.883403 328 1784ft 149kts
02-Mar-19 13:35 36.646018 -121.897052 337 3515ft 161kts
02-Mar-19 13:36 36.666545 -121.861910 106 5559ft 156kts
02-Mar-19 13:37 36.665062 -121.806193 99 7430ft 165kts
02-Mar-19 13:38 36.664709 -121.750706 100 9212ft 164kts
02-Mar-19 13:39 36.664226 -121.692563 91 10914ft 181kts
02-Mar-19 13:40 36.664141 -121.629442 97 12777ft 183kts
02-Mar-19 13:41 36.666470 -121.563899 90 14533ft 195kts
02-Mar-19 13:42 36.670990 -121.494561 90 16231ft 206kts
02-Mar-19 13:43 36.675706 -121.421873 90 17816ft 215kts
02-Mar-19 13:44 36.680591 -121.345385 91 18961ft 240kts
02-Mar-19 13:45 36.686432 -121.252522 89 19810ft 259kts
02-Mar-19 13:46 36.691748 -121.169341 89 21553ft 241kts
02-Mar-19 13:47 36.697006 -121.084157 87 22739ft 250kts
02-Mar-19 13:48 36.702379 -120.996509 86 23911ft 259kts
02-Mar-19 13:49 36.707896 -120.905575 85 25363ft 266kts
02-Mar-19 13:50 36.713475 -120.812224 84 26634ft 275kts
02-Mar-19 13:51 36.728335 -120.717683 69 27816ft 281kts
02-Mar-19 13:52 36.748429 -120.622267 69 28976ft 289kts
02-Mar-19 13:53 36.769473 -120.521656 69 29961ft 310kts
02-Mar-19 13:54 36.791547 -120.415781 69 30943ft 324kts
02-Mar-19 13:55 36.815790 -120.298955 71 30928ft 365kts
02-Mar-19 13:56 36.839700 -120.182996 71 30924ft 382kts
02-Mar-19 13:57 36.866603 -120.051943 71 30926ft 395kts
02-Mar-19 13:58 36.894160 -119.917636 69 30925ft 400kts
02-Mar-19 13:59 36.890116 -119.778711 100 30934ft 405kts
02-Mar-19 14:00 36.876654 -119.638235 98 30935ft 408kts
02-Mar-19 14:01 36.863480 -119.497238 98 30937ft 410kts
02-Mar-19 14:02 36.850106 -119.355889 98 30940ft 410kts
02-Mar-19 14:03 36.836576 -119.214723 99 30927ft 408kts
02-Mar-19 14:04 36.822945 -119.074299 99 30950ft 406kts
02-Mar-19 14:05 36.809133 -118.933694 99 30944ft 407kts
02-Mar-19 14:06 36.795108 -118.792858 99 30917ft 408kts
02-Mar-19 14:07 36.780963 -118.652364 99 30919ft 408kts
02-Mar-19 14:08 36.766185 -118.511611 100 30918ft 408kts
02-Mar-19 14:09 36.751207 -118.370705 100 30921ft 409kts
02-Mar-19 14:10 36.736152 -118.230559 101 30902ft 407kts
02-Mar-19 14:11 36.720964 -118.090992 100 30897ft 405kts
02-Mar-19 14:12 36.705615 -117.951225 101 30901ft 405kts
02-Mar-19 14:14 36.690086 -117.811563 101 30903ft 405kts
02-Mar-19 14:15 36.674439 -117.672243 101 30919ft 406kts
02-Mar-19 14:16 36.658520 -117.532272 100 30932ft 406kts
02-Mar-19 14:17 36.642472 -117.392414 101 30938ft 407kts
02-Mar-19 14:18 36.626123 -117.251658 101 30513ft 418kts
02-Mar-19 14:19 36.609428 -117.108969 101 29398ft 411kts
02-Mar-19 14:20 36.592899 -116.968798 102 28297ft 405kts
02-Mar-19 14:21 36.576459 -116.831161 103 27215ft 399kts
02-Mar-19 14:22 36.554437 -116.697113 119 26114ft 384kts
02-Mar-19 14:23 36.488972 -116.607769 152 25030ft 344kts
02-Mar-19 14:24 36.419853 -116.521092 144 23715ft 357kts
02-Mar-19 14:25 36.350792 -116.430390 143 21977ft 361kts
02-Mar-19 14:26 36.285353 -116.344526 144 19899ft 316kts
02-Mar-19 14:27 36.228415 -116.270194 144 17579ft 280kts
02-Mar-19 14:28 36.176563 -116.202635 144 15314ft 262kts
02-Mar-19 14:29 36.126885 -116.138031 143 14143ft 260kts
02-Mar-19 14:30 36.077189 -116.073419 143 13853ft 252kts
02-Mar-19 14:31 36.028684 -116.010594 143 13863ft 255kts
02-Mar-19 14:31 35.996634 -115.948821 93 13875ft 284kts
02-Mar-19 14:33 36.007493 -115.831319 84 13330ft 307kts
02-Mar-19 14:34 36.018776 -115.728164 85 11894ft 291kts
02-Mar-19 14:35 36.029265 -115.631618 85 10858ft 261kts
02-Mar-19 14:35 36.037481 -115.555005 85 10996ft 283kts
02-Mar-19 14:36 36.048299 -115.453990 84 10992ft 301kts
02-Mar-19 14:38 36.060505 -115.339193 85 9903ft 265kts
02-Mar-19 14:38 36.068055 -115.267167 85 8171ft 245kts
02-Mar-19 14:39 36.076189 -115.189240 85 8004ft 236kts
02-Mar-19 14:40 36.084868 -115.104284 85 8011ft 257kts
02-Mar-19 14:41 36.098071 -115.016378 50 7950ft 267kts
02-Mar-19 14:42 36.159539 -114.976000 21 5862ft 241kts
02-Mar-19 14:43 36.216779 -114.970889 293 5510ft 219kts
02-Mar-19 14:44 36.193335 -115.033152 231 5498ft 215kts
02-Mar-19 14:45 36.163159 -115.089794 238 4148ft 182kts
02-Mar-19 14:46 36.138565 -115.136657 233 3048ft 145kts
02-Mar-19 14:47 36.106496 -115.152422 214 2381ft 94kts
02-Mar-19 14:48 36.090215 -115.161926 206 2117ft 30kts

Navigation Log

Ident Type
Flight plan parsing failed, navigation log unavailable